Time;durP1;ratioP1;P1;durP2;ratioP2;P2;SDS_P1;SDS_P2;PMS_P1;PMS_P2;Temp;Humidity;BMP_temperature;BMP_pressure;BME280_temperature;BME280_humidity;BME280_pressure;Samples;Min_cycle;Max_cycle;Signal;HPM_P1;HPM_P2
2022/11/21 00:00:45;;;;;;;11.77;3.20;;;7.50;99.90;;;;;;5051265;28;20214;-49
2022/11/21 00:03:11;;;;;;;14.23;3.25;;;7.50;99.90;;;;;;5051538;28;20163;-49
2022/11/21 00:05:42;;;;;;;13.23;3.75;;;7.40;99.90;;;;;;5050868;28;20175;-49
2022/11/21 00:08:10;;;;;;;17.67;4.30;;;7.50;99.90;;;;;;5050601;28;20197;-49
2022/11/21 00:10:37;;;;;;;13.63;3.90;;;7.50;99.90;;;;;;5052988;28;20198;-48
2022/11/21 00:13:03;;;;;;;16.90;3.50;;;7.40;99.90;;;;;;5054417;28;20167;-49
2022/11/21 00:15:29;;;;;;;17.98;4.35;;;7.40;99.90;;;;;;5054378;28;20182;-50
2022/11/21 00:17:54;;;;;;;13.00;3.30;;;7.40;99.90;;;;;;5036397;28;20167;-49
2022/11/21 00:20:21;;;;;;;15.43;4.05;;;7.40;99.90;;;;;;5054455;28;20171;-49
2022/11/21 00:22:47;;;;;;;17.83;4.38;;;7.40;99.90;;;;;;5054461;28;20170;-49
2022/11/21 00:25:13;;;;;;;16.45;3.10;;;7.30;99.90;;;;;;5054862;28;20531;-50
2022/11/21 00:27:39;;;;;;;18.45;4.72;;;7.30;99.90;;;;;;5054500;28;20179;-49
2022/11/21 00:30:06;;;;;;;12.90;3.28;;;7.30;99.90;;;;;;5054493;28;20632;-49
2022/11/21 00:32:32;;;;;;;21.17;3.38;;;7.30;99.90;;;;;;5054297;28;20665;-49
2022/11/21 00:34:58;;;;;;;11.57;3.35;;;7.20;99.90;;;;;;5054175;28;20190;-49
2022/11/21 00:37:23;;;;;;;18.48;3.78;;;7.10;99.90;;;;;;5054116;28;20221;-49
2022/11/21 00:39:49;;;;;;;14.80;3.75;;;7.20;99.90;;;;;;5054091;28;20229;-53
2022/11/21 00:42:14;;;;;;;11.40;3.50;;;7.10;99.90;;;;;;5054425;28;20528;-52
2022/11/21 00:44:40;;;;;;;10.95;3.30;;;7.20;99.90;;;;;;5053973;28;20573;-53
2022/11/21 00:47:05;;;;;;;9.88;3.35;;;7.20;99.90;;;;;;5054031;28;20579;-53
2022/11/21 00:49:31;;;;;;;18.42;3.72;;;7.20;99.90;;;;;;5053913;28;20614;-53
2022/11/21 00:51:56;;;;;;;13.50;3.40;;;7.20;99.90;;;;;;5053901;28;20182;-51
2022/11/21 00:54:22;;;;;;;22.45;4.57;;;7.20;99.90;;;;;;5054095;28;20163;-52
2022/11/21 00:56:48;;;;;;;13.15;3.05;;;7.20;99.90;;;;;;5054033;28;20182;-49
2022/11/21 00:59:13;;;;;;;15.00;4.00;;;7.20;99.90;;;;;;5054062;28;20163;-50
2022/11/21 01:01:40;;;;;;;11.90;3.60;;;7.10;99.90;;;;;;5053890;28;20285;-49
2022/11/21 01:04:05;;;;;;;10.02;3.70;;;7.20;99.90;;;;;;5053889;28;20236;-50
2022/11/21 01:06:31;;;;;;;11.77;3.47;;;7.20;99.90;;;;;;5053801;28;20230;-49
2022/11/21 01:08:57;;;;;;;17.52;3.17;;;7.20;99.90;;;;;;5053558;28;20170;-51
2022/11/21 01:11:23;;;;;;;12.48;3.88;;;7.20;99.90;;;;;;5053452;28;20646;-48
2022/11/21 01:13:51;;;;;;;21.80;3.72;;;7.20;99.90;;;;;;5053468;28;20197;-48
2022/11/21 01:16:19;;;;;;;14.38;3.10;;;7.10;99.90;;;;;;5035528;28;20175;-48
2022/11/21 01:18:46;;;;;;;13.35;3.55;;;7.20;99.90;;;;;;5053631;28;20171;-48
2022/11/21 01:21:14;;;;;;;13.88;3.25;;;7.20;99.90;;;;;;5053696;28;20198;-49
2022/11/21 01:23:40;;;;;;;10.93;3.42;;;7.10;99.90;;;;;;5053245;28;20169;-49
2022/11/21 01:26:13;;;;;;;10.27;2.78;;;7.10;99.90;;;;;;5053294;28;20254;-49
2022/11/21 01:28:39;;;;;;;14.50;3.55;;;7.10;99.90;;;;;;5053476;28;20170;-49
2022/11/21 01:31:12;;;;;;;12.02;3.63;;;7.10;99.90;;;;;;5053137;28;20617;-48
2022/11/21 01:33:39;;;;;;;15.98;3.55;;;7.10;99.90;;;;;;5053053;28;20202;-49
2022/11/21 01:36:16;;;;;;;14.60;3.92;;;7.10;99.90;;;;;;5053040;28;20175;-49
2022/11/21 01:38:45;;;;;;;14.95;3.55;;;7.10;99.90;;;;;;5053383;28;20162;-49
2022/11/21 01:41:12;;;;;;;17.02;4.53;;;7.10;99.90;;;;;;5053153;28;20182;-49
2022/11/21 01:43:38;;;;;;;7.85;2.75;;;7.10;99.90;;;;;;5052880;28;20166;-49
2022/11/21 01:46:09;;;;;;;17.45;3.83;;;7.10;99.90;;;;;;5052792;28;20305;-49
2022/11/21 01:48:45;;;;;;;12.02;3.05;;;7.10;99.90;;;;;;5052765;28;20162;-48
2022/11/21 01:51:20;;;;;;;14.15;3.15;;;7.10;99.90;;;;;;5053241;28;20210;-48
2022/11/21 01:54:00;;;;;;;15.10;3.85;;;7.10;99.90;;;;;;5052655;28;20732;-48
2022/11/21 01:56:28;;;;;;;18.85;4.30;;;7.10;99.90;;;;;;5052820;28;20253;-50
2022/11/21 01:58:56;;;;;;;9.15;3.25;;;7.10;99.90;;;;;;5052587;28;20170;-48
2022/11/21 02:01:22;;;;;;;15.63;3.40;;;7.10;99.90;;;;;;5052424;28;20217;-49
2022/11/21 02:03:49;;;;;;;16.83;3.90;;;7.10;99.90;;;;;;5052560;28;20163;-49
2022/11/21 02:06:15;;;;;;;14.77;3.00;;;7.00;99.90;;;;;;5052320;28;20240;-48
2022/11/21 02:08:43;;;;;;;12.23;3.45;;;7.00;99.90;;;;;;5052852;28;20198;-48
2022/11/21 02:11:16;;;;;;;9.52;2.78;;;7.00;99.90;;;;;;5052311;28;20206;-48
2022/11/21 02:13:41;;;;;;;11.23;3.55;;;7.00;99.90;;;;;;5052778;28;20163;-49
2022/11/21 02:16:07;;;;;;;14.10;3.20;;;7.00;99.90;;;;;;5052296;28;20225;-48
2022/11/21 02:18:33;;;;;;;15.32;4.13;;;6.90;99.90;;;;;;5052349;28;20254;-49
2022/11/21 02:21:28;;;;;;;8.27;2.55;;;7.00;99.90;;;;;;5052241;28;20171;-49
2022/11/21 02:24:13;;;;;;;14.98;3.83;;;6.90;99.90;;;;;;5043519;28;20313;-49
2022/11/21 02:26:39;;;;;;;8.02;2.85;;;6.90;99.90;;;;;;5052040;28;20185;-48
2022/11/21 02:29:05;;;;;;;11.40;4.53;;;6.90;99.90;;;;;;5052089;28;20665;-49
2022/11/21 02:31:31;;;;;;;12.82;2.47;;;6.90;99.90;;;;;;5051985;28;20202;-49
2022/11/21 02:33:56;;;;;;;9.20;2.45;;;6.90;99.90;;;;;;5051551;28;20232;-49
2022/11/21 02:36:42;;;;;;;11.18;3.25;;;6.90;99.90;;;;;;5052025;28;20167;-49
2022/11/21 02:39:12;;;;;;;5.63;2.40;;;6.90;99.90;;;;;;5052156;28;20170;-48
2022/11/21 02:41:44;;;;;;;15.55;3.75;;;6.90;99.90;;;;;;5051943;28;20163;-49
2022/11/21 02:44:28;;;;;;;10.07;2.90;;;6.90;99.90;;;;;;5052189;28;20178;-48
2022/11/21 02:46:53;;;;;;;7.13;2.42;;;6.80;99.90;;;;;;5051828;28;20170;-50
2022/11/21 02:49:29;;;;;;;10.52;3.13;;;6.80;99.90;;;;;;5051774;28;20171;-48
2022/11/21 02:51:54;;;;;;;9.23;2.53;;;6.80;99.90;;;;;;5051794;28;20177;-48
2022/11/21 02:54:20;;;;;;;6.38;2.50;;;6.70;99.90;;;;;;5051732;28;20182;-49
2022/11/21 02:56:45;;;;;;;13.35;2.55;;;6.70;99.90;;;;;;5051730;28;20526;-48
2022/11/21 02:59:11;;;;;;;20.45;3.20;;;6.70;99.90;;;;;;5052003;28;20631;-50
2022/11/21 03:01:36;;;;;;;9.25;2.72;;;6.70;99.90;;;;;;5051895;28;20646;-49
2022/11/21 03:04:02;;;;;;;11.90;2.53;;;6.70;99.90;;;;;;5051681;28;20191;-49
2022/11/21 03:06:27;;;;;;;11.75;3.13;;;6.80;99.90;;;;;;5051566;28;20692;-48
2022/11/21 03:08:53;;;;;;;8.73;2.55;;;6.80;99.90;;;;;;5051675;28;20242;-49
2022/11/21 03:11:18;;;;;;;7.55;2.58;;;6.70;99.90;;;;;;5051498;28;20279;-48
2022/11/21 03:13:44;;;;;;;8.38;2.58;;;6.70;99.90;;;;;;5051847;28;20170;-49
2022/11/21 03:16:10;;;;;;;7.10;2.63;;;6.70;99.90;;;;;;5051837;28;20174;-48
2022/11/21 03:18:35;;;;;;;7.47;2.47;;;6.70;99.90;;;;;;5051475;28;20163;-48
2022/11/21 03:21:01;;;;;;;12.15;2.80;;;6.80;99.90;;;;;;5033520;28;20171;-51
2022/11/21 03:23:26;;;;;;;10.43;2.88;;;6.70;99.90;;;;;;5051491;28;20173;-48
2022/11/21 03:25:52;;;;;;;14.52;2.92;;;6.70;99.90;;;;;;5051387;28;20185;-49
2022/11/21 03:28:17;;;;;;;8.82;2.47;;;6.70;99.90;;;;;;5051595;28;20250;-48
2022/11/21 03:30:43;;;;;;;11.63;3.60;;;6.70;99.90;;;;;;5033964;28;20242;-48
2022/11/21 03:33:08;;;;;;;8.48;2.63;;;6.80;99.90;;;;;;5051315;28;20167;-48
2022/11/21 03:35:34;;;;;;;7.45;2.33;;;6.70;99.90;;;;;;5051396;28;20178;-48
2022/11/21 03:37:59;;;;;;;10.00;2.72;;;6.70;99.90;;;;;;5051300;28;20166;-48
2022/11/21 03:40:25;;;;;;;6.20;2.38;;;6.70;99.90;;;;;;5051355;28;20174;-48
2022/11/21 03:42:50;;;;;;;6.78;2.35;;;6.80;99.90;;;;;;5051199;28;20254;-48
2022/11/21 03:45:16;;;;;;;8.45;2.30;;;6.70;99.90;;;;;;5052942;28;20174;-48
2022/11/21 03:47:42;;;;;;;12.50;2.88;;;6.70;99.90;;;;;;5055714;28;20170;-48
2022/11/21 03:50:08;;;;;;;8.70;2.90;;;6.80;99.90;;;;;;5055193;28;20195;-48
2022/11/21 03:52:34;;;;;;;15.98;3.08;;;6.70;99.90;;;;;;5037088;28;20171;-48
2022/11/21 03:54:59;;;;;;;9.23;2.67;;;6.70;99.90;;;;;;5037106;28;20257;-48
2022/11/21 03:57:25;;;;;;;16.00;2.63;;;6.70;99.90;;;;;;5037058;28;20201;-49
2022/11/21 03:59:50;;;;;;;8.02;2.38;;;6.70;99.90;;;;;;5054757;28;20670;-48
2022/11/21 04:02:16;;;;;;;10.90;2.53;;;6.70;99.90;;;;;;5054849;28;20512;-48
2022/11/21 04:04:42;;;;;;;7.70;2.40;;;6.70;99.90;;;;;;5055154;28;20181;-49
2022/11/21 04:07:07;;;;;;;7.35;2.30;;;6.70;99.90;;;;;;5054705;28;20595;-48
2022/11/21 04:09:33;;;;;;;6.00;2.55;;;6.70;99.90;;;;;;5054619;28;20175;-48
2022/11/21 04:11:58;;;;;;;7.63;2.47;;;6.60;99.90;;;;;;5054666;28;20181;-48
2022/11/21 04:14:24;;;;;;;20.17;3.95;;;6.70;99.90;;;;;;5054672;28;20253;-49
2022/11/21 04:16:49;;;;;;;7.93;3.17;;;6.70;99.90;;;;;;5054385;28;20178;-48
2022/11/21 04:19:15;;;;;;;12.00;3.53;;;6.70;99.90;;;;;;5054571;28;20624;-50
2022/11/21 04:21:40;;;;;;;10.05;3.30;;;6.70;99.90;;;;;;5054885;28;20174;-48
2022/11/21 04:24:06;;;;;;;8.10;3.63;;;6.70;99.90;;;;;;5054436;28;20173;-49
2022/11/21 04:26:32;;;;;;;6.88;3.38;;;6.70;99.90;;;;;;5054157;28;20162;-49
2022/11/21 04:28:57;;;;;;;8.35;3.58;;;6.70;99.90;;;;;;5054394;28;20257;-48
2022/11/21 04:31:23;;;;;;;7.45;4.13;;;6.70;99.90;;;;;;5054150;28;20260;-48
2022/11/21 04:33:48;;;;;;;9.77;3.95;;;6.70;99.90;;;;;;5054268;28;20166;-50
2022/11/21 04:36:14;;;;;;;4.75;3.08;;;6.60;99.90;;;;;;5054390;28;20288;-48
2022/11/21 04:38:40;;;;;;;8.35;3.80;;;6.70;99.90;;;;;;5054539;28;20163;-49
2022/11/21 04:41:05;;;;;;;9.90;5.32;;;6.70;99.90;;;;;;5054141;28;20167;-49
2022/11/21 04:43:31;;;;;;;11.50;4.50;;;6.70;99.90;;;;;;5054079;28;20201;-48
2022/11/21 04:45:56;;;;;;;14.38;3.92;;;6.70;99.90;;;;;;5054089;28;20167;-49
2022/11/21 04:48:23;;;;;;;11.98;4.05;;;6.70;99.90;;;;;;5054078;28;20182;-48
2022/11/21 04:50:49;;;;;;;16.10;4.55;;;6.60;99.90;;;;;;5054134;28;20586;-49
2022/11/21 04:53:14;;;;;;;11.52;4.30;;;6.70;99.90;;;;;;5053870;28;20555;-48
2022/11/21 04:55:40;;;;;;;10.15;4.22;;;6.60;99.90;;;;;;5053740;28;20533;-49
2022/11/21 04:58:05;;;;;;;13.52;5.00;;;6.60;99.90;;;;;;5054068;28;20208;-49
2022/11/21 05:00:31;;;;;;;19.92;4.95;;;6.60;99.90;;;;;;5035728;28;20577;-49
2022/11/21 05:03:01;;;;;;;11.80;4.15;;;6.70;99.90;;;;;;5053909;28;20240;-48
2022/11/21 05:05:27;;;;;;;12.15;4.43;;;6.70;99.90;;;;;;5053873;28;20175;-49
2022/11/21 05:07:52;;;;;;;9.20;4.35;;;6.70;99.90;;;;;;5053830;28;20273;-48
2022/11/21 05:10:18;;;;;;;12.10;5.38;;;6.60;99.90;;;;;;5053479;28;20605;-50
2022/11/21 05:15:28;;;;;;;14.30;5.38;;;6.60;99.90;;;;;;5053306;28;20534;-49
2022/11/21 05:17:53;;;;;;;10.27;4.70;;;6.70;99.90;;;;;;5053681;28;20167;-48
2022/11/21 05:20:19;;;;;;;13.85;4.80;;;6.70;99.90;;;;;;5053332;28;20657;-48
2022/11/21 05:22:49;;;;;;;8.45;4.07;;;6.70;99.90;;;;;;5053209;28;20590;-48
2022/11/21 05:25:15;;;;;;;11.52;5.70;;;6.70;99.90;;;;;;5053291;28;20171;-48
2022/11/21 05:27:41;;;;;;;9.02;5.35;;;6.70;99.90;;;;;;5053566;28;20175;-48
2022/11/21 05:30:07;;;;;;;9.00;5.25;;;6.70;99.90;;;;;;5053249;28;20206;-52
2022/11/21 05:32:32;;;;;;;13.40;6.53;;;6.70;99.90;;;;;;5053319;28;20179;-48
2022/11/21 05:34:58;;;;;;;11.75;6.03;;;6.70;99.90;;;;;;5053189;28;20162;-49
2022/11/21 05:37:23;;;;;;;16.13;6.20;;;6.70;99.90;;;;;;5052851;28;20257;-49
2022/11/21 05:39:49;;;;;;;11.27;6.15;;;6.70;99.90;;;;;;5052788;28;20194;-50
2022/11/21 05:42:14;;;;;;;15.88;6.25;;;6.70;99.90;;;;;;5052664;28;20206;-48
2022/11/21 05:44:40;;;;;;;12.15;6.30;;;6.70;99.90;;;;;;5052732;28;20217;-49
2022/11/21 05:47:05;;;;;;;13.45;7.45;;;6.70;99.90;;;;;;5052810;28;20171;-49
2022/11/21 05:49:31;;;;;;;12.32;6.93;;;6.70;99.90;;;;;;5052698;28;20175;-50
2022/11/21 05:51:56;;;;;;;14.63;6.70;;;6.60;99.90;;;;;;5052969;28;20182;-49
2022/11/21 05:54:22;;;;;;;15.00;7.18;;;6.70;99.90;;;;;;5034885;28;20166;-50
2022/11/21 05:56:47;;;;;;;13.23;6.57;;;6.60;99.90;;;;;;5052590;28;20180;-50
2022/11/21 05:59:13;;;;;;;18.52;6.95;;;6.70;99.90;;;;;;5052909;28;20170;-51
2022/11/21 06:04:23;;;;;;;10.88;6.03;;;6.60;99.90;;;;;;5052600;28;20217;-48
2022/11/21 06:06:48;;;;;;;7.93;4.65;;;6.70;99.90;;;;;;5052427;28;20178;-49
2022/11/21 06:09:14;;;;;;;13.27;6.75;;;6.60;99.90;;;;;;5052216;28;20536;-48
2022/11/21 06:11:39;;;;;;;8.65;6.15;;;6.70;99.90;;;;;;5052694;28;20210;-48
2022/11/21 06:14:05;;;;;;;15.68;7.40;;;6.70;99.90;;;;;;5052430;28;20177;-49
2022/11/21 06:16:30;;;;;;;10.77;6.43;;;6.70;99.90;;;;;;5052337;28;20182;-50
2022/11/21 06:18:56;;;;;;;18.08;5.57;;;6.60;99.90;;;;;;5052327;28;20170;-48
2022/11/21 06:21:27;;;;;;;13.25;6.13;;;6.60;99.90;;;;;;5052178;28;20220;-49
2022/11/21 06:23:54;;;;;;;12.90;6.53;;;6.70;99.90;;;;;;5052211;28;20163;-51
2022/11/21 06:26:23;;;;;;;8.02;5.10;;;6.60;99.90;;;;;;5052095;28;20178;-48
2022/11/21 06:28:49;;;;;;;12.60;5.28;;;6.60;99.90;;;;;;5052149;28;20241;-48
2022/11/21 06:31:20;;;;;;;13.27;5.78;;;6.60;99.90;;;;;;5051918;28;20293;-48
2022/11/21 06:33:46;;;;;;;14.23;5.30;;;6.60;99.90;;;;;;5052037;28;20285;-49
2022/11/21 06:36:14;;;;;;;7.93;4.95;;;6.50;99.90;;;;;;5052230;28;20178;-48
2022/11/21 06:38:40;;;;;;;11.52;5.45;;;6.50;99.90;;;;;;5052110;28;20224;-49
2022/11/21 06:41:09;;;;;;;13.95;5.30;;;6.50;99.90;;;;;;5052018;28;20166;-48
2022/11/21 06:43:35;;;;;;;9.20;5.38;;;6.50;99.90;;;;;;5033764;28;20177;-49
2022/11/21 06:46:02;;;;;;;9.98;5.35;;;6.60;99.90;;;;;;5051702;28;20162;-49
2022/11/21 06:48:29;;;;;;;10.93;5.70;;;6.60;99.90;;;;;;5051982;28;20175;-49
2022/11/21 06:50:54;;;;;;;8.93;5.30;;;6.50;99.90;;;;;;5051495;28;20213;-49
2022/11/21 06:53:20;;;;;;;11.05;5.43;;;6.60;99.90;;;;;;5051671;28;20238;-49
2022/11/21 06:55:46;;;;;;;10.30;5.88;;;6.60;99.90;;;;;;5052026;28;20166;-48
2022/11/21 06:58:11;;;;;;;8.50;5.65;;;6.60;99.90;;;;;;5052333;28;20221;-51
2022/11/21 07:00:37;;;;;;;12.70;5.75;;;6.60;99.90;;;;;;5051656;28;20623;-48
2022/11/21 07:03:03;;;;;;;9.98;6.30;;;6.60;99.90;;;;;;5051621;28;20639;-48
2022/11/21 07:05:28;;;;;;;8.43;5.30;;;6.60;99.90;;;;;;5051711;28;20526;-48
2022/11/21 07:08:02;;;;;;;9.50;5.60;;;6.60;99.90;;;;;;5051879;28;20163;-48
2022/11/21 07:10:28;;;;;;;10.27;5.50;;;6.60;99.90;;;;;;5051460;28;20218;-48
2022/11/21 07:15:46;;;;;;;9.63;5.85;;;6.60;99.90;;;;;;5051776;28;20173;-48
2022/11/21 07:18:12;;;;;;;12.77;5.40;;;6.50;99.90;;;;;;5051866;28;20175;-48
2022/11/21 07:20:39;;;;;;;13.40;5.82;;;6.60;99.90;;;;;;5055840;28;20196;-48
2022/11/21 07:23:05;;;;;;;10.70;5.97;;;6.60;99.90;;;;;;5038088;28;20213;-49
2022/11/21 07:25:31;;;;;;;13.45;5.90;;;6.60;99.90;;;;;;5055416;28;20170;-48
2022/11/21 07:28:03;;;;;;;8.95;5.35;;;6.50;99.90;;;;;;5055665;28;20169;-48
2022/11/21 07:30:28;;;;;;;14.05;7.03;;;6.60;99.90;;;;;;5055382;28;20687;-48
2022/11/21 07:33:00;;;;;;;10.52;5.30;;;6.60;99.90;;;;;;5055431;28;20255;-49
2022/11/21 07:35:26;;;;;;;9.45;5.65;;;6.70;99.90;;;;;;5055666;28;20316;-48
2022/11/21 07:37:52;;;;;;;9.63;5.45;;;6.70;99.90;;;;;;5055233;28;20635;-49
2022/11/21 07:40:19;;;;;;;14.02;5.22;;;6.70;99.90;;;;;;5055253;28;20171;-49
2022/11/21 07:42:45;;;;;;;7.32;5.65;;;6.70;99.90;;;;;;5055098;28;20623;-48
2022/11/21 07:45:12;;;;;;;12.30;5.28;;;6.60;99.90;;;;;;5055416;28;20197;-49
2022/11/21 07:47:37;;;;;;;9.07;5.82;;;6.70;99.90;;;;;;5055052;28;20627;-49
2022/11/21 07:50:05;;;;;;;12.93;6.70;;;6.60;99.90;;;;;;5054897;28;20206;-49
2022/11/21 07:52:30;;;;;;;14.00;6.22;;;6.70;99.90;;;;;;5058935;28;20166;-47
2022/11/21 07:54:56;;;;;;;11.73;6.88;;;6.70;99.90;;;;;;5073221;28;20679;-50
2022/11/21 07:57:23;;;;;;;11.27;5.93;;;6.80;99.90;;;;;;5053320;28;20193;-48
2022/11/21 07:59:49;;;;;;;12.73;6.47;;;6.70;99.90;;;;;;5053001;28;20214;-49
2022/11/21 08:02:19;;;;;;;10.95;6.65;;;6.80;99.90;;;;;;5053142;28;20665;-50
2022/11/21 08:04:46;;;;;;;14.45;6.90;;;6.80;99.90;;;;;;5053242;28;20494;-49
2022/11/21 08:07:11;;;;;;;12.25;7.20;;;6.80;99.90;;;;;;5053266;28;20220;-49
2022/11/21 08:09:37;;;;;;;12.02;6.72;;;6.90;99.90;;;;;;5052980;28;20178;-48
2022/11/21 08:12:02;;;;;;;12.98;8.10;;;6.70;99.90;;;;;;5052895;28;20227;-48
2022/11/21 08:14:28;;;;;;;15.00;8.40;;;6.80;99.90;;;;;;5052954;28;20669;-50
2022/11/21 08:16:53;;;;;;;11.40;7.72;;;6.80;99.90;;;;;;5052853;28;20206;-48
2022/11/21 08:19:19;;;;;;;13.88;8.55;;;6.80;99.90;;;;;;5053070;28;20174;-49
2022/11/21 08:21:44;;;;;;;17.55;9.43;;;6.80;99.90;;;;;;5052600;28;20159;-48
2022/11/21 08:24:13;;;;;;;13.27;8.88;;;6.90;99.90;;;;;;5052937;28;20745;-48
2022/11/21 08:26:39;;;;;;;13.80;8.23;;;6.90;99.90;;;;;;5053270;28;20467;-48
2022/11/21 08:29:05;;;;;;;15.65;8.25;;;6.90;99.90;;;;;;5052668;28;20167;-48
2022/11/21 08:31:31;;;;;;;12.45;8.25;;;7.00;99.90;;;;;;5051947;28;20214;-49
2022/11/21 08:33:57;;;;;;;14.95;7.85;;;7.00;99.90;;;;;;5052453;28;20204;-48
2022/11/21 08:36:23;;;;;;;13.63;7.15;;;7.00;99.90;;;;;;5052351;28;20171;-52
2022/11/21 08:38:48;;;;;;;15.38;7.55;;;7.00;99.90;;;;;;5052473;28;20705;-48
2022/11/21 08:43:58;;;;;;;13.48;6.97;;;7.00;99.90;;;;;;5052208;28;20279;-48
2022/11/21 08:46:26;;;;;;;17.33;7.75;;;7.10;99.90;;;;;;5052105;28;20211;-49
2022/11/21 08:48:53;;;;;;;10.15;6.43;;;7.10;99.90;;;;;;5068000;28;20162;-50
2022/11/21 08:51:19;;;;;;;15.65;7.57;;;7.10;99.90;;;;;;5071988;28;20296;-50
2022/11/21 08:53:45;;;;;;;15.30;8.00;;;7.20;99.90;;;;;;5072124;28;20653;-50
2022/11/21 08:56:10;;;;;;;17.63;8.23;;;7.10;99.90;;;;;;5054304;28;20718;-49
2022/11/21 08:58:36;;;;;;;11.88;7.18;;;7.20;99.90;;;;;;5072451;28;20505;-50
2022/11/21 09:01:01;;;;;;;17.98;7.68;;;7.20;99.90;;;;;;5071724;28;20701;-49
2022/11/21 09:03:27;;;;;;;13.95;7.00;;;7.20;99.90;;;;;;5072050;28;20185;-49
2022/11/21 09:05:58;;;;;;;10.00;7.32;;;7.30;99.90;;;;;;5072128;28;20542;-49
2022/11/21 09:08:24;;;;;;;12.95;6.82;;;7.10;99.90;;;;;;5071914;28;20241;-49
2022/11/21 09:10:50;;;;;;;9.73;5.80;;;7.40;99.90;;;;;;5071991;28;20213;-49
2022/11/21 09:13:16;;;;;;;9.63;6.85;;;7.50;99.90;;;;;;5071580;28;20166;-49
2022/11/21 09:18:25;;;;;;;11.63;6.38;;;7.60;99.90;;;;;;5071624;28;20189;-49
2022/11/21 09:20:51;;;;;;;13.82;6.47;;;7.60;99.90;;;;;;5071625;28;20170;-50
2022/11/21 09:23:16;;;;;;;8.85;5.65;;;7.60;99.90;;;;;;5071418;28;20198;-49
2022/11/21 09:25:43;;;;;;;15.15;6.53;;;7.60;99.90;;;;;;5071788;28;20224;-50
2022/11/21 09:28:10;;;;;;;15.40;5.72;;;7.90;99.90;;;;;;5072128;28;20280;-49
2022/11/21 09:30:36;;;;;;;7.30;4.53;;;7.90;99.90;;;;;;5053384;28;20210;-49
2022/11/21 09:33:07;;;;;;;10.30;4.85;;;7.80;99.90;;;;;;5071517;28;20181;-50
2022/11/21 09:35:33;;;;;;;7.82;4.32;;;7.90;99.90;;;;;;5071384;28;20900;-50
2022/11/21 09:37:58;;;;;;;11.50;4.88;;;8.00;99.90;;;;;;5071322;28;20265;-49
2022/11/21 09:40:24;;;;;;;6.88;4.25;;;8.10;99.90;;;;;;5071183;28;20166;-49
2022/11/21 09:43:09;;;;;;;8.05;4.55;;;8.10;99.90;;;;;;5069983;28;20572;-49
2022/11/21 09:45:51;;;;;;;9.50;4.53;;;8.00;99.90;;;;;;5071419;28;20169;-49
2022/11/21 09:48:27;;;;;;;12.88;4.50;;;7.90;99.90;;;;;;5071349;28;20174;-49
2022/11/21 09:51:09;;;;;;;8.15;4.43;;;7.90;99.90;;;;;;5070937;28;20205;-50
2022/11/21 09:53:58;;;;;;;11.63;4.55;;;7.80;99.90;;;;;;5071018;28;20537;-52
2022/11/21 09:56:26;;;;;;;12.18;4.47;;;7.70;99.90;;;;;;5071197;28;20633;-50
2022/11/21 09:59:20;;;;;;;9.85;4.30;;;7.70;99.90;;;;;;5070916;28;20162;-50
2022/11/21 10:01:46;;;;;;;11.10;4.00;;;7.70;99.90;;;;;;5041439;28;20194;-53
2022/11/21 10:04:12;;;;;;;6.75;4.35;;;7.80;99.90;;;;;;5071107;28;20249;-49
2022/11/21 10:06:58;;;;;;;8.63;4.40;;;7.90;99.90;;;;;;5070892;28;20633;-50
2022/11/21 10:09:43;;;;;;;10.20;3.88;;;7.90;99.90;;;;;;5070745;28;20566;-50
2022/11/21 10:12:36;;;;;;;6.65;3.40;;;7.90;99.90;;;;;;5071225;28;20193;-49
2022/11/21 10:15:26;;;;;;;9.07;3.83;;;8.00;99.90;;;;;;5070427;28;20173;-50
2022/11/21 10:18:13;;;;;;;11.98;3.58;;;8.00;99.90;;;;;;5070770;28;20170;-49
2022/11/21 10:21:12;;;;;;;8.80;3.58;;;8.00;99.90;;;;;;5070912;28;20246;-51
2022/11/21 10:24:11;;;;;;;9.15;4.18;;;8.00;99.90;;;;;;5039633;28;20262;-49
2022/11/21 10:26:57;;;;;;;8.93;2.88;;;8.20;99.90;;;;;;5070577;28;20170;-50
2022/11/21 10:29:37;;;;;;;8.10;2.83;;;8.30;99.90;;;;;;5070247;28;20166;-49
2022/11/21 10:32:19;;;;;;;13.80;3.30;;;8.20;99.90;;;;;;5070115;28;20205;-48
2022/11/21 10:34:45;;;;;;;5.63;2.20;;;8.20;99.90;;;;;;5035757;28;20522;-50
2022/11/21 10:37:35;;;;;;;8.95;2.67;;;8.10;99.90;;;;;;5070447;28;20545;-51
2022/11/21 10:40:42;;;;;;;8.23;2.25;;;8.30;99.90;;;;;;5060368;28;20194;-50
2022/11/21 10:46:21;;;;;;;7.25;3.10;;;8.30;99.90;;;;;;5051060;28;20177;-49
2022/11/21 10:48:59;;;;;;;4.18;2.35;;;8.20;99.90;;;;;;5069850;28;20166;-48
2022/11/21 10:51:39;;;;;;;5.18;2.00;;;8.30;99.90;;;;;;5051944;28;20209;-49
2022/11/21 10:56:58;;;;;;;4.40;2.20;;;8.30;99.90;;;;;;5070335;28;20227;-47
2022/11/21 10:59:26;;;;;;;8.50;2.53;;;8.30;99.90;;;;;;5070112;28;20208;-47
2022/11/21 11:02:02;;;;;;;8.13;2.17;;;8.30;99.90;;;;;;5069875;28;20172;-48
2022/11/21 11:04:29;;;;;;;7.20;1.60;;;8.40;99.90;;;;;;5051845;28;20176;-49
2022/11/21 11:06:58;;;;;;;8.55;2.28;;;8.40;99.90;;;;;;5070360;28;20161;-48
2022/11/21 11:09:32;;;;;;;6.03;2.10;;;8.40;99.90;;;;;;5070179;28;20211;-47
2022/11/21 11:12:22;;;;;;;7.18;1.88;;;8.50;99.90;;;;;;5069728;28;20241;-48
2022/11/21 11:14:53;;;;;;;5.65;1.92;;;8.60;99.90;;;;;;5051876;28;20174;-48
2022/11/21 11:17:30;;;;;;;7.22;1.73;;;8.70;99.90;;;;;;5069688;28;20189;-49
2022/11/21 11:20:26;;;;;;;8.05;1.83;;;8.70;99.90;;;;;;5069665;28;20173;-47
2022/11/21 11:22:52;;;;;;;3.92;1.38;;;8.70;99.90;;;;;;5069582;28;20180;-49
2022/11/21 11:25:17;;;;;;;7.07;2.00;;;10.10;99.90;;;;;;5051936;28;20629;-47
2022/11/21 11:27:43;;;;;;;7.20;2.78;;;8.90;99.90;;;;;;5069702;28;20640;-47
2022/11/21 11:30:15;;;;;;;5.32;1.63;;;8.90;99.90;;;;;;5070263;28;20677;-48
2022/11/21 11:32:40;;;;;;;8.15;2.20;;;8.90;99.90;;;;;;5070119;28;20212;-48
2022/11/21 11:35:20;;;;;;;10.15;2.53;;;8.90;99.90;;;;;;5069691;28;20206;-47
2022/11/21 11:38:02;;;;;;;8.13;1.80;;;8.90;99.90;;;;;;5070028;28;20256;-47
2022/11/21 11:40:42;;;;;;;3.05;1.20;;;9.00;99.90;;;;;;5069870;28;20633;-47
2022/11/21 11:49:10;;;;;;;6.40;1.83;;;9.10;99.90;;;;;;5069383;28;20215;-47
2022/11/21 11:51:50;;;;;;;6.18;1.98;;;9.10;99.90;;;;;;5051784;28;20290;-48
2022/11/21 11:54:46;;;;;;;7.75;2.25;;;9.00;99.90;;;;;;5069644;28;20307;-49
2022/11/21 11:57:13;;;;;;;6.50;2.10;;;9.00;99.90;;;;;;5069516;28;20177;-48
2022/11/21 11:59:48;;;;;;;4.50;1.80;;;9.00;99.90;;;;;;5069875;28;20254;-47
2022/11/21 12:02:24;;;;;;;5.05;1.80;;;9.00;99.90;;;;;;5069678;28;20201;-47
2022/11/21 12:05:04;;;;;;;4.25;2.13;;;9.00;99.90;;;;;;5069550;28;20180;-47
2022/11/21 12:07:41;;;;;;;6.32;2.13;;;9.00;99.90;;;;;;5072755;28;20169;-47
2022/11/21 12:10:28;;;;;;;10.15;6.65;;;9.10;99.90;;;;;;5073267;28;20517;-47
2022/11/21 12:13:04;;;;;;;2.92;1.58;;;9.00;99.90;;;;;;5073320;28;20273;-47
2022/11/21 12:15:48;;;;;;;9.32;2.35;;;9.10;99.90;;;;;;5072917;28;20215;-48
2022/11/21 12:18:19;;;;;;;6.25;4.35;;;9.00;99.90;;;;;;5072819;28;20166;-47
2022/11/21 12:21:08;;;;;;;3.70;2.10;;;9.10;99.90;;;;;;5072912;28;20545;-47
2022/11/21 12:23:50;;;;;;;2.90;1.20;;;9.20;99.90;;;;;;5072354;28;20294;-47
2022/11/21 12:26:21;;;;;;;1.80;1.20;;;9.20;99.90;;;;;;5072455;28;20170;-48
2022/11/21 12:29:21;;;;;;;3.40;1.40;;;9.10;99.90;;;;;;5072690;28;20253;-47
2022/11/21 12:32:19;;;;;;;2.45;1.23;;;9.10;99.90;;;;;;5072584;28;20708;-48
2022/11/21 12:34:51;;;;;;;5.82;3.17;;;9.00;99.90;;;;;;5072725;28;20207;-52
2022/11/21 12:37:28;;;;;;;6.90;2.70;;;9.10;99.90;;;;;;5065753;28;20299;-48
2022/11/21 12:40:06;;;;;;;4.30;1.73;;;9.10;99.90;;;;;;5063094;28;20158;-54
2022/11/21 12:42:49;;;;;;;3.90;1.52;;;9.10;99.90;;;;;;5062928;28;20563;-47
2022/11/21 12:45:31;;;;;;;3.90;1.10;;;9.10;99.90;;;;;;5072246;28;20230;-48
2022/11/21 12:54:41;;;;;;;2.60;1.13;;;9.20;99.90;;;;;;5072136;28;20173;-48
2022/11/21 12:57:11;;;;;;;2.60;1.42;;;9.20;99.90;;;;;;5072408;28;20165;-48
2022/11/21 13:00:08;;;;;;;2.25;1.40;;;9.10;99.90;;;;;;5072285;28;20704;-48
2022/11/21 13:02:52;;;;;;;3.25;1.42;;;9.10;99.90;;;;;;5054056;28;20302;-47
2022/11/21 13:05:28;;;;;;;5.25;2.25;;;9.10;99.90;;;;;;5071744;28;20215;-48
2022/11/21 13:08:00;;;;;;;3.33;1.42;;;9.00;99.90;;;;;;5072065;28;20645;-55
2022/11/21 13:10:27;;;;;;;6.57;3.38;;;9.00;99.90;;;;;;5071181;28;20198;-48
2022/11/21 13:13:23;;;;;;;2.92;1.40;;;9.00;99.90;;;;;;5071761;28;20162;-48
2022/11/21 13:16:10;;;;;;;3.13;1.25;;;9.00;99.90;;;;;;5071878;28;20641;-47
2022/11/21 13:18:43;;;;;;;16.38;9.63;;;9.00;99.90;;;;;;5071673;28;20235;-48
2022/11/21 13:21:39;;;;;;;7.38;4.30;;;9.00;99.90;;;;;;5071913;28;20166;-48
2022/11/21 13:24:06;;;;;;;3.75;2.60;;;9.00;99.90;;;;;;5071454;28;20521;-47
2022/11/21 13:26:32;;;;;;;8.02;3.30;;;9.00;99.90;;;;;;5071284;28;20521;-47
2022/11/21 13:29:16;;;;;;;5.40;2.53;;;9.00;99.90;;;;;;5071927;28;20166;-48
2022/11/21 13:31:42;;;;;;;2.95;1.75;;;8.90;99.90;;;;;;5071809;28;20205;-49
2022/11/21 13:34:29;;;;;;;5.55;2.63;;;8.90;99.90;;;;;;5071709;28;20154;-48
2022/11/21 13:36:55;;;;;;;7.50;1.92;;;8.90;99.90;;;;;;5071215;28;20166;-48